sensor_id;sensor_type;location;lat;lon;timestamp;temperature;humidity
6407;DHT22;3236;51.022;6.818;2023-01-10T00:00:54;6.50;99.90
6407;DHT22;3236;51.022;6.818;2023-01-10T00:03:21;6.30;99.90
6407;DHT22;3236;51.022;6.818;2023-01-10T00:05:48;6.20;99.90
6407;DHT22;3236;51.022;6.818;2023-01-10T00:08:18;6.30;99.90
6407;DHT22;3236;51.022;6.818;2023-01-10T00:10:47;6.00;99.90
6407;DHT22;3236;51.022;6.818;2023-01-10T00:13:15;6.20;99.90
6407;DHT22;3236;51.022;6.818;2023-01-10T00:15:51;6.20;99.90
6407;DHT22;3236;51.022;6.818;2023-01-10T00:20:47;6.20;99.90
6407;DHT22;3236;51.022;6.818;2023-01-10T00:23:15;6.20;99.90
6407;DHT22;3236;51.022;6.818;2023-01-10T00:25:47;6.20;99.90
6407;DHT22;3236;51.022;6.818;2023-01-10T00:28:15;5.90;99.90
6407;DHT22;3236;51.022;6.818;2023-01-10T00:30:47;6.00;99.90
6407;DHT22;3236;51.022;6.818;2023-01-10T00:33:24;6.30;99.90
6407;DHT22;3236;51.022;6.818;2023-01-10T00:35:57;6.50;99.90
6407;DHT22;3236;51.022;6.818;2023-01-10T00:38:25;6.30;99.90
6407;DHT22;3236;51.022;6.818;2023-01-10T00:40:55;6.40;99.90
6407;DHT22;3236;51.022;6.818;2023-01-10T00:43:23;6.50;99.90
6407;DHT22;3236;51.022;6.818;2023-01-10T00:46:07;6.70;99.90
6407;DHT22;3236;51.022;6.818;2023-01-10T00:48:39;6.40;99.90
6407;DHT22;3236;51.022;6.818;2023-01-10T00:56:05;6.40;99.90
6407;DHT22;3236;51.022;6.818;2023-01-10T00:58:32;6.40;99.90
6407;DHT22;3236;51.022;6.818;2023-01-10T01:00:59;6.50;99.90
6407;DHT22;3236;51.022;6.818;2023-01-10T01:05:56;6.40;99.90
6407;DHT22;3236;51.022;6.818;2023-01-10T01:08:23;6.40;99.90
6407;DHT22;3236;51.022;6.818;2023-01-10T01:11:00;6.40;99.90
6407;DHT22;3236;51.022;6.818;2023-01-10T01:13:27;6.40;99.90
6407;DHT22;3236;51.022;6.818;2023-01-10T01:15:57;6.30;99.90
6407;DHT22;3236;51.022;6.818;2023-01-10T01:18:24;6.30;99.90
6407;DHT22;3236;51.022;6.818;2023-01-10T01:20:52;6.40;99.90
6407;DHT22;3236;51.022;6.818;2023-01-10T01:23:22;6.50;99.90
6407;DHT22;3236;51.022;6.818;2023-01-10T01:25:50;6.50;99.90
6407;DHT22;3236;51.022;6.818;2023-01-10T01:28:21;6.40;99.90
6407;DHT22;3236;51.022;6.818;2023-01-10T01:30:48;6.40;99.90
6407;DHT22;3236;51.022;6.818;2023-01-10T01:33:16;6.40;99.90
6407;DHT22;3236;51.022;6.818;2023-01-10T01:35:44;6.20;99.90
6407;DHT22;3236;51.022;6.818;2023-01-10T01:43:20;6.30;99.90
6407;DHT22;3236;51.022;6.818;2023-01-10T01:51:02;6.00;99.90
6407;DHT22;3236;51.022;6.818;2023-01-10T01:53:36;6.40;99.90
6407;DHT22;3236;51.022;6.818;2023-01-10T01:56:13;6.30;99.90
6407;DHT22;3236;51.022;6.818;2023-01-10T01:58:45;6.40;99.90
6407;DHT22;3236;51.022;6.818;2023-01-10T02:01:14;6.60;99.90
6407;DHT22;3236;51.022;6.818;2023-01-10T02:03:45;6.70;99.90
6407;DHT22;3236;51.022;6.818;2023-01-10T02:06:15;6.30;99.90
6407;DHT22;3236;51.022;6.818;2023-01-10T02:08:46;6.10;99.90
6407;DHT22;3236;51.022;6.818;2023-01-10T02:11:17;6.60;99.90
6407;DHT22;3236;51.022;6.818;2023-01-10T02:13:45;6.30;99.90
6407;DHT22;3236;51.022;6.818;2023-01-10T02:16:13;6.30;99.90
6407;DHT22;3236;51.022;6.818;2023-01-10T02:18:42;6.20;99.90
6407;DHT22;3236;51.022;6.818;2023-01-10T02:21:28;5.80;99.90
6407;DHT22;3236;51.022;6.818;2023-01-10T02:24:30;6.10;99.90
6407;DHT22;3236;51.022;6.818;2023-01-10T02:27:21;6.00;99.90
6407;DHT22;3236;51.022;6.818;2023-01-10T02:30:19;6.00;99.90
6407;DHT22;3236;51.022;6.818;2023-01-10T02:32:58;6.10;99.90
6407;DHT22;3236;51.022;6.818;2023-01-10T02:35:48;5.90;99.90
6407;DHT22;3236;51.022;6.818;2023-01-10T02:38:30;6.00;99.90
6407;DHT22;3236;51.022;6.818;2023-01-10T02:41:07;6.00;99.90
6407;DHT22;3236;51.022;6.818;2023-01-10T02:43:40;6.00;99.90
6407;DHT22;3236;51.022;6.818;2023-01-10T02:46:13;6.00;99.90
6407;DHT22;3236;51.022;6.818;2023-01-10T02:48:42;5.70;99.90
6407;DHT22;3236;51.022;6.818;2023-01-10T02:51:16;6.00;99.90
6407;DHT22;3236;51.022;6.818;2023-01-10T02:53:47;5.70;99.90
6407;DHT22;3236;51.022;6.818;2023-01-10T02:59:31;6.00;99.90
6407;DHT22;3236;51.022;6.818;2023-01-10T03:02:08;6.30;99.90
6407;DHT22;3236;51.022;6.818;2023-01-10T03:04:50;6.00;99.90
6407;DHT22;3236;51.022;6.818;2023-01-10T03:07:23;5.90;99.90
6407;DHT22;3236;51.022;6.818;2023-01-10T03:09:53;5.90;99.90
6407;DHT22;3236;51.022;6.818;2023-01-10T03:12:26;5.70;99.90
6407;DHT22;3236;51.022;6.818;2023-01-10T03:14:55;5.70;99.90
6407;DHT22;3236;51.022;6.818;2023-01-10T03:17:24;6.40;99.90
6407;DHT22;3236;51.022;6.818;2023-01-10T03:19:57;5.40;99.90
6407;DHT22;3236;51.022;6.818;2023-01-10T03:22:29;5.60;99.90
6407;DHT22;3236;51.022;6.818;2023-01-10T03:24:58;5.40;99.90
6407;DHT22;3236;51.022;6.818;2023-01-10T03:27:32;5.60;99.90
6407;DHT22;3236;51.022;6.818;2023-01-10T03:30:04;5.70;99.90
6407;DHT22;3236;51.022;6.818;2023-01-10T03:32:33;5.60;99.90
6407;DHT22;3236;51.022;6.818;2023-01-10T03:35:02;5.60;99.90
6407;DHT22;3236;51.022;6.818;2023-01-10T03:37:34;5.60;99.90
6407;DHT22;3236;51.022;6.818;2023-01-10T03:40:08;5.60;99.90
6407;DHT22;3236;51.022;6.818;2023-01-10T03:42:46;5.50;99.90
6407;DHT22;3236;51.022;6.818;2023-01-10T03:45:36;5.50;99.90
6407;DHT22;3236;51.022;6.818;2023-01-10T03:48:08;4.60;99.90
6407;DHT22;3236;51.022;6.818;2023-01-10T03:50:39;5.40;99.90
6407;DHT22;3236;51.022;6.818;2023-01-10T03:53:07;5.40;99.90
6407;DHT22;3236;51.022;6.818;2023-01-10T03:55:37;5.10;99.90
6407;DHT22;3236;51.022;6.818;2023-01-10T03:58:14;5.30;99.90
6407;DHT22;3236;51.022;6.818;2023-01-10T04:00:46;5.80;99.90
6407;DHT22;3236;51.022;6.818;2023-01-10T04:03:13;5.00;99.90
6407;DHT22;3236;51.022;6.818;2023-01-10T04:05:43;5.40;99.90
6407;DHT22;3236;51.022;6.818;2023-01-10T04:08:10;5.40;99.90
6407;DHT22;3236;51.022;6.818;2023-01-10T04:10:40;5.90;99.90
6407;DHT22;3236;51.022;6.818;2023-01-10T04:13:07;5.80;99.90
6407;DHT22;3236;51.022;6.818;2023-01-10T04:15:34;5.60;99.90
6407;DHT22;3236;51.022;6.818;2023-01-10T04:18:01;5.70;99.90
6407;DHT22;3236;51.022;6.818;2023-01-10T04:20:28;5.90;99.90
6407;DHT22;3236;51.022;6.818;2023-01-10T04:22:57;5.60;99.90
6407;DHT22;3236;51.022;6.818;2023-01-10T04:25:24;5.60;99.90
6407;DHT22;3236;51.022;6.818;2023-01-10T04:27:52;6.00;99.90
6407;DHT22;3236;51.022;6.818;2023-01-10T04:30:20;5.70;99.90
6407;DHT22;3236;51.022;6.818;2023-01-10T04:32:47;5.90;99.90
6407;DHT22;3236;51.022;6.818;2023-01-10T04:35:16;5.70;99.90
6407;DHT22;3236;51.022;6.818;2023-01-10T04:37:43;5.70;99.90
6407;DHT22;3236;51.022;6.818;2023-01-10T04:40:12;6.00;99.90
6407;DHT22;3236;51.022;6.818;2023-01-10T04:42:41;5.80;99.90
6407;DHT22;3236;51.022;6.818;2023-01-10T04:45:10;6.10;99.90
6407;DHT22;3236;51.022;6.818;2023-01-10T04:47:39;5.80;99.90
6407;DHT22;3236;51.022;6.818;2023-01-10T04:50:06;5.80;99.90
6407;DHT22;3236;51.022;6.818;2023-01-10T04:52:37;6.00;99.90
6407;DHT22;3236;51.022;6.818;2023-01-10T04:55:07;5.80;99.90
6407;DHT22;3236;51.022;6.818;2023-01-10T04:57:35;5.70;99.90
6407;DHT22;3236;51.022;6.818;2023-01-10T05:00:03;6.00;99.90
6407;DHT22;3236;51.022;6.818;2023-01-10T05:02:31;5.90;99.90
6407;DHT22;3236;51.022;6.818;2023-01-10T05:04:58;5.70;99.90
6407;DHT22;3236;51.022;6.818;2023-01-10T05:07:25;5.40;99.90
6407;DHT22;3236;51.022;6.818;2023-01-10T05:09:52;6.00;99.90
6407;DHT22;3236;51.022;6.818;2023-01-10T05:12:21;5.70;99.90
6407;DHT22;3236;51.022;6.818;2023-01-10T05:14:50;5.70;99.90
6407;DHT22;3236;51.022;6.818;2023-01-10T05:17:17;5.80;99.90
6407;DHT22;3236;51.022;6.818;2023-01-10T05:19:44;6.20;99.90
6407;DHT22;3236;51.022;6.818;2023-01-10T05:22:11;5.80;99.90
6407;DHT22;3236;51.022;6.818;2023-01-10T05:24:38;5.80;99.90
6407;DHT22;3236;51.022;6.818;2023-01-10T05:27:06;5.80;99.90
6407;DHT22;3236;51.022;6.818;2023-01-10T05:29:34;5.60;99.90
6407;DHT22;3236;51.022;6.818;2023-01-10T05:32:02;5.20;99.90
6407;DHT22;3236;51.022;6.818;2023-01-10T05:34:32;5.60;99.90
6407;DHT22;3236;51.022;6.818;2023-01-10T05:37:01;5.50;99.90
6407;DHT22;3236;51.022;6.818;2023-01-10T05:39:28;5.50;99.90
6407;DHT22;3236;51.022;6.818;2023-01-10T05:41:55;5.40;99.90
6407;DHT22;3236;51.022;6.818;2023-01-10T05:44:22;5.30;99.90
6407;DHT22;3236;51.022;6.818;2023-01-10T05:46:49;5.30;99.90
6407;DHT22;3236;51.022;6.818;2023-01-10T05:49:18;5.10;99.90
6407;DHT22;3236;51.022;6.818;2023-01-10T05:51:45;5.30;99.90
6407;DHT22;3236;51.022;6.818;2023-01-10T05:54:12;5.20;99.90
6407;DHT22;3236;51.022;6.818;2023-01-10T05:56:39;5.90;99.90
6407;DHT22;3236;51.022;6.818;2023-01-10T05:59:07;5.00;99.90
6407;DHT22;3236;51.022;6.818;2023-01-10T06:01:34;5.00;99.90
6407;DHT22;3236;51.022;6.818;2023-01-10T06:04:01;5.00;99.90
6407;DHT22;3236;51.022;6.818;2023-01-10T06:06:30;4.70;99.90
6407;DHT22;3236;51.022;6.818;2023-01-10T06:08:59;5.20;99.90
6407;DHT22;3236;51.022;6.818;2023-01-10T06:11:26;4.60;99.90
6407;DHT22;3236;51.022;6.818;2023-01-10T06:13:55;4.80;99.90
6407;DHT22;3236;51.022;6.818;2023-01-10T06:16:22;5.00;99.90
6407;DHT22;3236;51.022;6.818;2023-01-10T06:18:50;5.30;99.90
6407;DHT22;3236;51.022;6.818;2023-01-10T06:21:17;5.00;99.90
6407;DHT22;3236;51.022;6.818;2023-01-10T06:23:47;4.80;99.90
6407;DHT22;3236;51.022;6.818;2023-01-10T06:26:14;5.10;99.90
6407;DHT22;3236;51.022;6.818;2023-01-10T06:28:41;5.30;99.90
6407;DHT22;3236;51.022;6.818;2023-01-10T06:31:08;5.40;99.90
6407;DHT22;3236;51.022;6.818;2023-01-10T06:33:35;5.10;99.90
6407;DHT22;3236;51.022;6.818;2023-01-10T06:36:04;4.90;99.90
6407;DHT22;3236;51.022;6.818;2023-01-10T06:38:31;5.10;99.90
6407;DHT22;3236;51.022;6.818;2023-01-10T06:43:38;4.90;99.90
6407;DHT22;3236;51.022;6.818;2023-01-10T06:48:35;5.10;99.90
6407;DHT22;3236;51.022;6.818;2023-01-10T06:51:02;4.90;99.90
6407;DHT22;3236;51.022;6.818;2023-01-10T06:53:29;5.30;99.90
6407;DHT22;3236;51.022;6.818;2023-01-10T06:55:57;5.20;99.90
6407;DHT22;3236;51.022;6.818;2023-01-10T06:58:25;5.20;99.90
6407;DHT22;3236;51.022;6.818;2023-01-10T07:00:53;5.10;99.90
6407;DHT22;3236;51.022;6.818;2023-01-10T07:03:20;5.20;99.90
6407;DHT22;3236;51.022;6.818;2023-01-10T07:05:47;5.20;99.90
6407;DHT22;3236;51.022;6.818;2023-01-10T07:10:43;5.10;99.90
6407;DHT22;3236;51.022;6.818;2023-01-10T07:13:10;5.10;99.90
6407;DHT22;3236;51.022;6.818;2023-01-10T07:15:38;5.10;99.90
6407;DHT22;3236;51.022;6.818;2023-01-10T07:20:33;5.30;99.90
6407;DHT22;3236;51.022;6.818;2023-01-10T07:23:04;5.40;99.90
6407;DHT22;3236;51.022;6.818;2023-01-10T07:25:31;5.00;99.90
6407;DHT22;3236;51.022;6.818;2023-01-10T07:27:58;5.20;99.90
6407;DHT22;3236;51.022;6.818;2023-01-10T07:30:25;4.90;99.90
6407;DHT22;3236;51.022;6.818;2023-01-10T07:32:56;4.70;99.90
6407;DHT22;3236;51.022;6.818;2023-01-10T07:35:25;5.00;99.90
6407;DHT22;3236;51.022;6.818;2023-01-10T07:37:54;4.80;99.90
6407;DHT22;3236;51.022;6.818;2023-01-10T07:40:24;4.70;99.90
6407;DHT22;3236;51.022;6.818;2023-01-10T07:45:26;5.00;99.90
6407;DHT22;3236;51.022;6.818;2023-01-10T07:47:57;4.70;99.90
6407;DHT22;3236;51.022;6.818;2023-01-10T07:50:24;4.70;99.90
6407;DHT22;3236;51.022;6.818;2023-01-10T07:52:51;4.80;99.90
6407;DHT22;3236;51.022;6.818;2023-01-10T07:55:19;4.70;99.90
6407;DHT22;3236;51.022;6.818;2023-01-10T07:57:46;4.70;99.90
6407;DHT22;3236;51.022;6.818;2023-01-10T08:00:20;4.60;99.90
6407;DHT22;3236;51.022;6.818;2023-01-10T08:02:52;4.70;99.90
6407;DHT22;3236;51.022;6.818;2023-01-10T08:05:21;4.10;99.90
6407;DHT22;3236;51.022;6.818;2023-01-10T08:07:48;4.60;99.90
6407;DHT22;3236;51.022;6.818;2023-01-10T08:10:17;4.60;99.90
6407;DHT22;3236;51.022;6.818;2023-01-10T08:15:12;4.60;99.90
6407;DHT22;3236;51.022;6.818;2023-01-10T08:20:13;4.50;99.90
6407;DHT22;3236;51.022;6.818;2023-01-10T08:22:41;4.80;99.90
6407;DHT22;3236;51.022;6.818;2023-01-10T08:27:36;5.20;99.90
6407;DHT22;3236;51.022;6.818;2023-01-10T08:30:04;4.90;99.90
6407;DHT22;3236;51.022;6.818;2023-01-10T08:32:32;5.30;99.90
6407;DHT22;3236;51.022;6.818;2023-01-10T08:34:59;5.10;99.90
6407;DHT22;3236;51.022;6.818;2023-01-10T08:37:27;5.10;99.90
6407;DHT22;3236;51.022;6.818;2023-01-10T08:42:23;6.50;99.90
6407;DHT22;3236;51.022;6.818;2023-01-10T08:44:50;5.40;99.90
6407;DHT22;3236;51.022;6.818;2023-01-10T08:47:19;5.40;99.90
6407;DHT22;3236;51.022;6.818;2023-01-10T08:49:49;5.30;99.90
6407;DHT22;3236;51.022;6.818;2023-01-10T08:52:16;5.60;99.90
6407;DHT22;3236;51.022;6.818;2023-01-10T08:54:44;5.50;99.90
6407;DHT22;3236;51.022;6.818;2023-01-10T08:57:12;5.50;99.90
6407;DHT22;3236;51.022;6.818;2023-01-10T08:59:42;5.70;99.90
6407;DHT22;3236;51.022;6.818;2023-01-10T09:02:11;5.50;99.90
6407;DHT22;3236;51.022;6.818;2023-01-10T09:07:06;5.60;99.90
6407;DHT22;3236;51.022;6.818;2023-01-10T09:09:33;5.70;99.90
6407;DHT22;3236;51.022;6.818;2023-01-10T09:12:00;5.60;99.90
6407;DHT22;3236;51.022;6.818;2023-01-10T09:14:48;5.70;99.90
6407;DHT22;3236;51.022;6.818;2023-01-10T09:17:16;6.20;99.90
6407;DHT22;3236;51.022;6.818;2023-01-10T09:19:46;5.60;99.90
6407;DHT22;3236;51.022;6.818;2023-01-10T09:22:13;6.30;99.90
6407;DHT22;3236;51.022;6.818;2023-01-10T09:24:40;7.50;99.90
6407;DHT22;3236;51.022;6.818;2023-01-10T09:27:11;6.30;99.90
6407;DHT22;3236;51.022;6.818;2023-01-10T09:29:38;6.20;99.90
6407;DHT22;3236;51.022;6.818;2023-01-10T09:32:07;6.30;99.90
6407;DHT22;3236;51.022;6.818;2023-01-10T09:34:34;6.80;99.90
6407;DHT22;3236;51.022;6.818;2023-01-10T09:37:04;6.30;99.90
6407;DHT22;3236;51.022;6.818;2023-01-10T09:39:32;6.50;99.90
6407;DHT22;3236;51.022;6.818;2023-01-10T09:42:11;6.90;99.90
6407;DHT22;3236;51.022;6.818;2023-01-10T09:44:51;6.50;99.90
6407;DHT22;3236;51.022;6.818;2023-01-10T09:47:28;6.40;99.90
6407;DHT22;3236;51.022;6.818;2023-01-10T09:50:12;6.70;99.90
6407;DHT22;3236;51.022;6.818;2023-01-10T09:52:47;6.50;99.90
6407;DHT22;3236;51.022;6.818;2023-01-10T09:55:24;6.80;99.90
6407;DHT22;3236;51.022;6.818;2023-01-10T09:57:52;6.90;99.90
6407;DHT22;3236;51.022;6.818;2023-01-10T10:00:32;7.10;99.90
6407;DHT22;3236;51.022;6.818;2023-01-10T10:03:04;6.80;99.90
6407;DHT22;3236;51.022;6.818;2023-01-10T10:05:36;7.10;99.90
6407;DHT22;3236;51.022;6.818;2023-01-10T10:08:14;6.80;99.90
6407;DHT22;3236;51.022;6.818;2023-01-10T10:10:54;7.10;99.90
6407;DHT22;3236;51.022;6.818;2023-01-10T10:13:35;7.40;99.90
6407;DHT22;3236;51.022;6.818;2023-01-10T10:16:13;7.20;99.90
6407;DHT22;3236;51.022;6.818;2023-01-10T10:18:52;7.20;99.90
6407;DHT22;3236;51.022;6.818;2023-01-10T10:21:26;7.40;99.90
6407;DHT22;3236;51.022;6.818;2023-01-10T10:24:18;7.30;99.90
6407;DHT22;3236;51.022;6.818;2023-01-10T10:26:55;7.60;99.90
6407;DHT22;3236;51.022;6.818;2023-01-10T10:29:40;7.40;99.90
6407;DHT22;3236;51.022;6.818;2023-01-10T10:32:24;7.40;99.90
6407;DHT22;3236;51.022;6.818;2023-01-10T10:34:57;7.60;99.90
6407;DHT22;3236;51.022;6.818;2023-01-10T10:37:28;7.70;99.90
6407;DHT22;3236;51.022;6.818;2023-01-10T10:40:00;7.70;99.90
6407;DHT22;3236;51.022;6.818;2023-01-10T10:42:30;7.90;99.90
6407;DHT22;3236;51.022;6.818;2023-01-10T10:45:14;7.90;99.90
6407;DHT22;3236;51.022;6.818;2023-01-10T10:47:45;8.30;99.90
6407;DHT22;3236;51.022;6.818;2023-01-10T10:50:24;7.90;99.90
6407;DHT22;3236;51.022;6.818;2023-01-10T10:52:55;8.20;99.90
6407;DHT22;3236;51.022;6.818;2023-01-10T10:55:28;8.40;99.90
6407;DHT22;3236;51.022;6.818;2023-01-10T10:57:56;8.30;99.90
6407;DHT22;3236;51.022;6.818;2023-01-10T11:00:27;8.20;99.90
6407;DHT22;3236;51.022;6.818;2023-01-10T11:02:57;8.20;99.90
6407;DHT22;3236;51.022;6.818;2023-01-10T11:05:34;8.30;99.90
6407;DHT22;3236;51.022;6.818;2023-01-10T11:08:04;8.40;99.90
6407;DHT22;3236;51.022;6.818;2023-01-10T11:10:36;8.10;99.90
6407;DHT22;3236;51.022;6.818;2023-01-10T11:13:11;8.40;99.90
6407;DHT22;3236;51.022;6.818;2023-01-10T11:15:44;8.70;99.90
6407;DHT22;3236;51.022;6.818;2023-01-10T11:18:15;8.50;99.90
6407;DHT22;3236;51.022;6.818;2023-01-10T11:20:52;8.50;99.90
6407;DHT22;3236;51.022;6.818;2023-01-10T11:26:10;8.90;99.90
6407;DHT22;3236;51.022;6.818;2023-01-10T11:28:47;8.70;99.90
6407;DHT22;3236;51.022;6.818;2023-01-10T11:31:25;8.90;99.90
6407;DHT22;3236;51.022;6.818;2023-01-10T11:33:56;8.70;99.90
6407;DHT22;3236;51.022;6.818;2023-01-10T11:36:25;8.80;99.90
6407;DHT22;3236;51.022;6.818;2023-01-10T11:38:59;9.20;99.90
6407;DHT22;3236;51.022;6.818;2023-01-10T11:41:27;8.70;99.90
6407;DHT22;3236;51.022;6.818;2023-01-10T11:44:15;8.90;99.90
6407;DHT22;3236;51.022;6.818;2023-01-10T11:46:43;8.60;99.90
6407;DHT22;3236;51.022;6.818;2023-01-10T11:51:47;8.90;99.90
6407;DHT22;3236;51.022;6.818;2023-01-10T11:54:18;8.90;99.90
6407;DHT22;3236;51.022;6.818;2023-01-10T11:56:55;8.90;99.90
6407;DHT22;3236;51.022;6.818;2023-01-10T11:59:22;9.00;99.90
6407;DHT22;3236;51.022;6.818;2023-01-10T12:01:55;8.00;99.90
6407;DHT22;3236;51.022;6.818;2023-01-10T12:04:28;8.80;99.90
6407;DHT22;3236;51.022;6.818;2023-01-10T12:07:02;9.00;99.90
6407;DHT22;3236;51.022;6.818;2023-01-10T12:09:36;9.00;99.90
6407;DHT22;3236;51.022;6.818;2023-01-10T12:12:15;9.30;99.90
6407;DHT22;3236;51.022;6.818;2023-01-10T12:17:20;9.00;99.90
6407;DHT22;3236;51.022;6.818;2023-01-10T12:19:48;8.70;99.90
6407;DHT22;3236;51.022;6.818;2023-01-10T12:22:23;8.90;99.90
6407;DHT22;3236;51.022;6.818;2023-01-10T12:24:52;8.80;99.90
6407;DHT22;3236;51.022;6.818;2023-01-10T12:27:20;8.30;99.90
6407;DHT22;3236;51.022;6.818;2023-01-10T12:30:02;9.10;99.90
6407;DHT22;3236;51.022;6.818;2023-01-10T12:32:35;8.70;99.90
6407;DHT22;3236;51.022;6.818;2023-01-10T12:35:09;8.60;99.90
6407;DHT22;3236;51.022;6.818;2023-01-10T12:37:45;8.80;99.90
6407;DHT22;3236;51.022;6.818;2023-01-10T12:40:18;8.80;99.90
6407;DHT22;3236;51.022;6.818;2023-01-10T12:42:51;8.40;99.90
6407;DHT22;3236;51.022;6.818;2023-01-10T12:45:41;8.30;99.90
6407;DHT22;3236;51.022;6.818;2023-01-10T12:48:16;8.50;99.90
6407;DHT22;3236;51.022;6.818;2023-01-10T12:50:46;8.60;99.90
6407;DHT22;3236;51.022;6.818;2023-01-10T12:53:30;8.50;99.90
6407;DHT22;3236;51.022;6.818;2023-01-10T12:56:01;8.60;99.90
6407;DHT22;3236;51.022;6.818;2023-01-10T13:01:02;8.60;99.90
6407;DHT22;3236;51.022;6.818;2023-01-10T13:03:31;8.50;99.90
6407;DHT22;3236;51.022;6.818;2023-01-10T13:06:00;8.90;99.90
6407;DHT22;3236;51.022;6.818;2023-01-10T13:08:32;8.40;99.90
6407;DHT22;3236;51.022;6.818;2023-01-10T13:11:01;8.60;99.90
6407;DHT22;3236;51.022;6.818;2023-01-10T13:13:32;8.50;99.90
6407;DHT22;3236;51.022;6.818;2023-01-10T13:16:15;8.90;99.90
6407;DHT22;3236;51.022;6.818;2023-01-10T13:18:58;8.20;99.90
6407;DHT22;3236;51.022;6.818;2023-01-10T13:21:26;8.50;99.90
6407;DHT22;3236;51.022;6.818;2023-01-10T13:24:00;8.10;99.90
6407;DHT22;3236;51.022;6.818;2023-01-10T13:26:49;8.60;99.90
6407;DHT22;3236;51.022;6.818;2023-01-10T13:29:20;8.50;99.90
6407;DHT22;3236;51.022;6.818;2023-01-10T13:31:48;8.40;99.90
6407;DHT22;3236;51.022;6.818;2023-01-10T13:34:24;8.30;99.90
6407;DHT22;3236;51.022;6.818;2023-01-10T13:37:10;8.30;99.90
6407;DHT22;3236;51.022;6.818;2023-01-10T13:39:42;8.30;99.90
6407;DHT22;3236;51.022;6.818;2023-01-10T13:42:28;8.20;99.90
6407;DHT22;3236;51.022;6.818;2023-01-10T13:45:27;8.20;99.90
6407;DHT22;3236;51.022;6.818;2023-01-10T13:48:00;8.10;99.90
6407;DHT22;3236;51.022;6.818;2023-01-10T13:50:52;8.20;99.90
6407;DHT22;3236;51.022;6.818;2023-01-10T13:53:49;8.40;99.90
6407;DHT22;3236;51.022;6.818;2023-01-10T13:56:37;8.10;99.90
6407;DHT22;3236;51.022;6.818;2023-01-10T13:59:11;7.90;99.90
6407;DHT22;3236;51.022;6.818;2023-01-10T14:01:58;8.10;99.90
6407;DHT22;3236;51.022;6.818;2023-01-10T14:04:47;8.10;99.90
6407;DHT22;3236;51.022;6.818;2023-01-10T14:07:33;8.00;99.90
6407;DHT22;3236;51.022;6.818;2023-01-10T14:10:18;8.40;99.90
6407;DHT22;3236;51.022;6.818;2023-01-10T14:12:50;7.90;99.90
6407;DHT22;3236;51.022;6.818;2023-01-10T14:15:24;8.10;99.90
6407;DHT22;3236;51.022;6.818;2023-01-10T14:17:56;7.90;99.90
6407;DHT22;3236;51.022;6.818;2023-01-10T14:20:24;7.90;99.90
6407;DHT22;3236;51.022;6.818;2023-01-10T14:23:06;7.50;99.90
6407;DHT22;3236;51.022;6.818;2023-01-10T14:25:37;7.80;99.90
6407;DHT22;3236;51.022;6.818;2023-01-10T14:28:19;8.20;99.90
6407;DHT22;3236;51.022;6.818;2023-01-10T14:30:57;7.80;99.90
6407;DHT22;3236;51.022;6.818;2023-01-10T14:33:26;7.50;99.90
6407;DHT22;3236;51.022;6.818;2023-01-10T14:35:56;7.40;99.90
6407;DHT22;3236;51.022;6.818;2023-01-10T14:38:27;6.80;99.90
6407;DHT22;3236;51.022;6.818;2023-01-10T14:40:58;7.60;99.90
6407;DHT22;3236;51.022;6.818;2023-01-10T14:43:32;7.50;99.90
6407;DHT22;3236;51.022;6.818;2023-01-10T14:46:07;7.60;99.90
6407;DHT22;3236;51.022;6.818;2023-01-10T14:48:44;8.10;99.90
6407;DHT22;3236;51.022;6.818;2023-01-10T14:51:20;7.80;99.90
6407;DHT22;3236;51.022;6.818;2023-01-10T14:53:55;7.80;99.90
6407;DHT22;3236;51.022;6.818;2023-01-10T14:56:25;7.80;99.90
6407;DHT22;3236;51.022;6.818;2023-01-10T15:01:24;7.50;99.90
6407;DHT22;3236;51.022;6.818;2023-01-10T15:03:52;7.40;99.90
6407;DHT22;3236;51.022;6.818;2023-01-10T15:16:36;7.70;99.90
6407;DHT22;3236;51.022;6.818;2023-01-10T15:19:03;7.50;99.90
6407;DHT22;3236;51.022;6.818;2023-01-10T15:21:31;8.00;99.90
6407;DHT22;3236;51.022;6.818;2023-01-10T15:23:58;7.60;99.90
6407;DHT22;3236;51.022;6.818;2023-01-10T15:26:28;8.00;99.90
6407;DHT22;3236;51.022;6.818;2023-01-10T15:29:19;7.60;99.90
6407;DHT22;3236;51.022;6.818;2023-01-10T15:34:18;7.60;99.90
6407;DHT22;3236;51.022;6.818;2023-01-10T15:36:49;7.30;99.90
6407;DHT22;3236;51.022;6.818;2023-01-10T15:39:20;7.70;99.90
6407;DHT22;3236;51.022;6.818;2023-01-10T15:41:48;7.40;99.90
6407;DHT22;3236;51.022;6.818;2023-01-10T15:44:35;7.10;99.90
6407;DHT22;3236;51.022;6.818;2023-01-10T15:47:03;6.90;99.90
6407;DHT22;3236;51.022;6.818;2023-01-10T15:49:31;6.80;99.90
6407;DHT22;3236;51.022;6.818;2023-01-10T15:51:58;7.10;99.90
6407;DHT22;3236;51.022;6.818;2023-01-10T15:54:30;7.20;99.90
6407;DHT22;3236;51.022;6.818;2023-01-10T15:57:15;6.90;99.90
6407;DHT22;3236;51.022;6.818;2023-01-10T15:59:47;7.00;99.90
6407;DHT22;3236;51.022;6.818;2023-01-10T16:02:20;6.80;99.90
6407;DHT22;3236;51.022;6.818;2023-01-10T16:04:50;7.00;99.90
6407;DHT22;3236;51.022;6.818;2023-01-10T16:07:21;6.90;99.90
6407;DHT22;3236;51.022;6.818;2023-01-10T16:09:53;6.70;99.90
6407;DHT22;3236;51.022;6.818;2023-01-10T16:12:24;6.70;99.90
6407;DHT22;3236;51.022;6.818;2023-01-10T16:15:16;6.40;99.90
6407;DHT22;3236;51.022;6.818;2023-01-10T16:17:45;6.50;99.90
6407;DHT22;3236;51.022;6.818;2023-01-10T16:20:18;6.70;99.90
6407;DHT22;3236;51.022;6.818;2023-01-10T16:22:46;6.30;99.90
6407;DHT22;3236;51.022;6.818;2023-01-10T16:25:19;6.80;99.90
6407;DHT22;3236;51.022;6.818;2023-01-10T16:27:47;6.60;99.90
6407;DHT22;3236;51.022;6.818;2023-01-10T16:30:22;6.60;99.90
6407;DHT22;3236;51.022;6.818;2023-01-10T16:32:50;6.00;99.90
6407;DHT22;3236;51.022;6.818;2023-01-10T16:35:17;6.60;99.90
6407;DHT22;3236;51.022;6.818;2023-01-10T16:37:45;6.70;99.90
6407;DHT22;3236;51.022;6.818;2023-01-10T16:40:20;6.40;99.90
6407;DHT22;3236;51.022;6.818;2023-01-10T16:42:48;6.30;99.90
6407;DHT22;3236;51.022;6.818;2023-01-10T16:45:34;6.00;99.90
6407;DHT22;3236;51.022;6.818;2023-01-10T16:48:01;6.70;99.90
6407;DHT22;3236;51.022;6.818;2023-01-10T16:50:29;6.50;99.90
6407;DHT22;3236;51.022;6.818;2023-01-10T16:52:57;6.70;99.90
6407;DHT22;3236;51.022;6.818;2023-01-10T16:55:37;6.30;99.90
6407;DHT22;3236;51.022;6.818;2023-01-10T16:58:05;6.60;99.90
6407;DHT22;3236;51.022;6.818;2023-01-10T17:00:34;6.10;99.90
6407;DHT22;3236;51.022;6.818;2023-01-10T17:03:06;6.30;99.90
6407;DHT22;3236;51.022;6.818;2023-01-10T17:05:36;6.30;99.90
6407;DHT22;3236;51.022;6.818;2023-01-10T17:10:37;6.20;99.90
6407;DHT22;3236;51.022;6.818;2023-01-10T17:13:08;6.40;99.90
6407;DHT22;3236;51.022;6.818;2023-01-10T17:15:38;6.20;99.90
6407;DHT22;3236;51.022;6.818;2023-01-10T17:18:05;6.00;99.90
6407;DHT22;3236;51.022;6.818;2023-01-10T17:20:33;6.10;99.90
6407;DHT22;3236;51.022;6.818;2023-01-10T17:27:58;5.90;99.90
6407;DHT22;3236;51.022;6.818;2023-01-10T17:30:25;6.30;99.90
6407;DHT22;3236;51.022;6.818;2023-01-10T17:32:53;5.90;99.90
6407;DHT22;3236;51.022;6.818;2023-01-10T17:35:22;6.50;99.90
6407;DHT22;3236;51.022;6.818;2023-01-10T17:37:52;6.30;99.90
6407;DHT22;3236;51.022;6.818;2023-01-10T17:40:19;6.20;99.90
6407;DHT22;3236;51.022;6.818;2023-01-10T17:42:46;6.10;99.90
6407;DHT22;3236;51.022;6.818;2023-01-10T17:45:13;6.50;99.90
6407;DHT22;3236;51.022;6.818;2023-01-10T17:47:44;6.20;99.90
6407;DHT22;3236;51.022;6.818;2023-01-10T17:50:12;5.80;99.90
6407;DHT22;3236;51.022;6.818;2023-01-10T17:52:40;5.80;99.90
6407;DHT22;3236;51.022;6.818;2023-01-10T17:55:08;6.40;99.90
6407;DHT22;3236;51.022;6.818;2023-01-10T17:57:35;6.20;99.90
6407;DHT22;3236;51.022;6.818;2023-01-10T18:00:04;6.20;99.90
6407;DHT22;3236;51.022;6.818;2023-01-10T18:02:32;6.10;99.90
6407;DHT22;3236;51.022;6.818;2023-01-10T18:07:35;6.00;99.90
6407;DHT22;3236;51.022;6.818;2023-01-10T18:10:03;5.80;99.90